createdAt,value
2017-04-19T00:00:58.773Z,85.77
2017-04-19T00:01:59.335Z,86.49
2017-04-19T00:02:59.868Z,86.38
2017-04-19T00:04:00.357Z,87.37
2017-04-19T00:05:00.887Z,87.72
2017-04-19T00:06:01.418Z,87.90
2017-04-19T00:07:01.952Z,88.71
2017-04-19T00:08:02.625Z,88.76
2017-04-19T00:09:03.012Z,88.41
2017-04-19T00:10:03.539Z,88.52
2017-04-19T00:11:04.074Z,88.01
2017-04-19T00:12:04.755Z,88.01
2017-04-19T00:13:05.135Z,86.81
2017-04-19T00:14:05.668Z,85.50
2017-04-19T00:15:06.193Z,85.24
2017-04-19T00:16:06.869Z,84.76
2017-04-19T00:17:07.255Z,84.07
2017-04-19T00:18:07.780Z,84.34
2017-04-19T00:19:08.311Z,84.20
2017-04-19T00:20:08.985Z,82.32
2017-04-19T00:21:09.510Z,82.11
2017-04-19T00:22:09.890Z,81.42
2017-04-19T00:23:10.419Z,81.21
2017-04-19T00:24:10.949Z,81.26
2017-04-19T00:25:11.480Z,81.32
2017-04-19T00:26:12.028Z,81.76
2017-04-19T00:27:12.543Z,82.29
2017-04-19T00:28:13.077Z,82.37
2017-04-19T00:29:13.606Z,83.14
2017-04-19T00:30:14.139Z,83.97
2017-04-19T00:31:14.675Z,84.12
2017-04-19T00:32:15.217Z,84.09
2017-04-19T00:33:15.743Z,83.70
2017-04-19T00:34:16.275Z,84.12
2017-04-19T00:35:16.810Z,84.97
2017-04-19T00:36:17.337Z,85.21
2017-04-19T00:37:17.871Z,85.48
2017-04-19T00:38:18.547Z,85.48
2017-04-19T00:39:19.075Z,85.21
2017-04-19T00:40:19.607Z,85.08
2017-04-19T00:41:19.989Z,84.71
2017-04-19T00:42:20.520Z,84.76
2017-04-19T00:43:21.049Z,84.12
2017-04-19T00:44:21.584Z,84.09
2017-04-19T00:45:22.111Z,84.02
2017-04-19T00:46:22.642Z,84.12
2017-04-19T00:47:23.173Z,85.05
2017-04-19T00:48:23.707Z,85.56
2017-04-19T00:49:24.231Z,85.64
2017-04-19T00:50:24.760Z,85.61
2017-04-19T00:51:25.291Z,85.48
2017-04-19T00:52:25.818Z,85.08
2017-04-19T00:53:26.348Z,84.76
2017-04-19T00:54:26.877Z,83.81
2017-04-19T00:55:27.409Z,83.22
2017-04-19T00:56:28.082Z,82.37
2017-04-19T00:57:28.608Z,82.37
2017-04-19T00:58:29.142Z,82.29
2017-04-19T00:59:29.524Z,82.00
2017-04-19T01:00:30.206Z,81.84
2017-04-19T01:01:30.735Z,83.22
2017-04-19T01:02:31.118Z,82.06
2017-04-19T01:03:31.647Z,81.52
2017-04-19T01:04:32.327Z,82.00
2017-04-19T01:05:32.706Z,82.72
2017-04-19T01:06:33.233Z,82.16
2017-04-19T01:07:33.765Z,81.95
2017-04-19T01:08:34.292Z,82.35
2017-04-19T01:09:34.823Z,81.87
2017-04-19T01:10:35.368Z,81.29
2017-04-19T01:11:35.884Z,81.10
2017-04-19T01:12:36.414Z,79.75
2017-04-19T01:13:36.953Z,79.63
2017-04-19T01:14:37.489Z,79.47
2017-04-19T01:15:38.028Z,79.02
2017-04-19T01:16:38.706Z,77.97
2017-04-19T01:17:39.091Z,78.28
2017-04-19T01:18:39.617Z,78.86
2017-04-19T01:19:40.145Z,79.05
2017-04-19T01:20:40.825Z,78.33
2017-04-19T01:21:41.206Z,78.65
2017-04-19T01:22:41.737Z,78.70
2017-04-19T01:23:42.414Z,78.78
2017-04-19T01:24:42.797Z,78.70
2017-04-19T01:25:43.327Z,78.59
2017-04-19T01:26:44.007Z,78.73
2017-04-19T01:27:44.387Z,79.23
2017-04-19T01:28:45.069Z,79.25
2017-04-19T01:29:45.444Z,79.07
2017-04-19T01:30:46.126Z,79.07
2017-04-19T01:31:46.506Z,78.99
2017-04-19T01:32:47.037Z,79.23
2017-04-19T01:33:47.569Z,78.67
2017-04-19T01:34:48.098Z,78.49
2017-04-19T01:35:48.635Z,78.33
2017-04-19T01:36:49.156Z,78.67
2017-04-19T01:37:49.696Z,78.86
2017-04-19T01:38:50.225Z,78.25
2017-04-19T01:39:50.756Z,79.17
2017-04-19T01:40:51.430Z,78.78
2017-04-19T01:41:51.813Z,78.75
2017-04-19T01:42:52.338Z,79.44
2017-04-19T01:43:52.876Z,79.57
2017-04-19T01:44:53.550Z,79.94
2017-04-19T01:45:54.076Z,79.63
2017-04-19T01:46:54.461Z,80.15
2017-04-19T01:47:54.992Z,81.13
2017-04-19T01:48:55.525Z,81.42
2017-04-19T01:49:56.056Z,82.16
2017-04-19T01:50:56.583Z,82.51
2017-04-19T01:51:57.116Z,83.01
2017-04-19T01:52:57.639Z,82.48
2017-04-19T01:53:58.175Z,82.67
2017-04-19T01:54:58.701Z,82.21
2017-04-19T01:55:59.242Z,82.48
2017-04-19T01:56:59.781Z,82.40
2017-04-19T01:58:00.304Z,83.04
2017-04-19T01:59:00.870Z,82.56
2017-04-19T02:00:01.368Z,82.43
2017-04-19T02:01:01.906Z,81.95
2017-04-19T02:02:02.425Z,82.21
2017-04-19T02:03:02.955Z,81.84
2017-04-19T02:04:03.482Z,81.84
2017-04-19T02:05:04.025Z,81.08
2017-04-19T02:06:04.545Z,81.18
2017-04-19T02:07:05.074Z,82.08
2017-04-19T02:08:05.610Z,82.45
2017-04-19T02:09:06.131Z,82.19
2017-04-19T02:10:06.663Z,82.48
2017-04-19T02:11:07.198Z,82.37
2017-04-19T02:12:07.722Z,81.90
2017-04-19T02:13:08.252Z,81.79
2017-04-19T02:14:08.786Z,81.58
2017-04-19T02:15:09.319Z,80.97
2017-04-19T02:16:09.993Z,80.81
2017-04-19T02:17:11.889Z,81.45
2017-04-19T02:18:10.911Z,81.34
2017-04-19T02:19:11.435Z,81.58
2017-04-19T02:20:11.965Z,81.79
2017-04-19T02:21:12.495Z,82.37
2017-04-19T02:22:13.022Z,83.22
2017-04-19T02:23:13.560Z,83.01
2017-04-19T02:24:14.083Z,83.20
2017-04-19T02:25:14.617Z,83.17
2017-04-19T02:26:15.141Z,83.28
2017-04-19T02:27:15.673Z,83.01
2017-04-19T02:28:16.202Z,82.90
2017-04-19T02:29:16.729Z,83.40
2017-04-19T02:30:17.407Z,83.73
2017-04-19T02:31:17.939Z,84.05
2017-04-19T02:32:18.468Z,84.79
2017-04-19T02:33:18.859Z,84.97
2017-04-19T02:34:19.386Z,84.71
2017-04-19T02:35:19.915Z,85.21
2017-04-19T02:36:20.460Z,85.35
2017-04-19T02:37:20.992Z,85.58
2017-04-19T02:38:21.533Z,85.88
2017-04-19T02:39:22.059Z,85.96
2017-04-19T02:40:22.729Z,85.91
2017-04-19T02:41:23.121Z,86.15
2017-04-19T02:42:23.641Z,85.91
2017-04-19T02:43:24.176Z,86.36
2017-04-19T02:44:24.702Z,86.76
2017-04-19T02:45:25.378Z,86.68
2017-04-19T02:46:25.758Z,86.04
2017-04-19T02:47:26.292Z,85.46
2017-04-19T02:48:26.816Z,85.16
2017-04-19T02:49:27.344Z,84.15
2017-04-19T02:50:27.878Z,84.15
2017-04-19T02:51:28.410Z,83.38
2017-04-19T02:52:28.937Z,82.88
2017-04-19T02:53:29.471Z,82.75
2017-04-19T02:54:29.995Z,82.53
2017-04-19T02:55:30.535Z,82.37
2017-04-19T02:56:31.061Z,82.35
2017-04-19T02:57:31.597Z,82.43
2017-04-19T02:58:32.120Z,82.37
2017-04-19T02:59:32.648Z,82.48
2017-04-19T03:00:33.173Z,82.48
2017-04-19T03:01:33.702Z,83.04
2017-04-19T03:02:34.237Z,82.61
2017-04-19T03:03:34.761Z,82.82
2017-04-19T03:04:35.297Z,83.06
2017-04-19T03:05:35.821Z,83.09
2017-04-19T03:06:36.496Z,83.01
2017-04-19T03:07:36.879Z,83.22
2017-04-19T03:08:37.413Z,83.44
2017-04-19T03:09:38.092Z,83.49
2017-04-19T03:10:38.471Z,83.38
2017-04-19T03:11:38.994Z,83.46
2017-04-19T03:12:39.528Z,83.38
2017-04-19T03:13:40.055Z,83.94
2017-04-19T03:14:40.585Z,83.40
2017-04-19T03:15:41.119Z,83.94
2017-04-19T03:16:41.673Z,83.99
2017-04-19T03:17:42.188Z,84.20
2017-04-19T03:18:42.710Z,84.36
2017-04-19T03:19:43.254Z,84.36
2017-04-19T03:20:43.785Z,84.47
2017-04-19T03:21:44.317Z,84.84
2017-04-19T03:22:44.851Z,85.32
2017-04-19T03:23:45.384Z,85.88
2017-04-19T03:24:45.909Z,85.91
2017-04-19T03:25:46.449Z,86.01
2017-04-19T03:26:46.969Z,85.75
2017-04-19T03:27:47.500Z,85.75
2017-04-19T03:28:48.037Z,86.01
2017-04-19T03:29:48.557Z,86.22
2017-04-19T03:30:49.088Z,86.97
2017-04-19T03:31:49.619Z,86.73
2017-04-19T03:32:50.152Z,86.84
2017-04-19T03:33:50.829Z,87.24
2017-04-19T03:34:51.205Z,87.13
2017-04-19T03:35:51.732Z,87.02
2017-04-19T03:36:52.269Z,87.53
2017-04-19T03:37:52.945Z,87.51
2017-04-19T03:38:53.329Z,87.85
2017-04-19T03:39:54.005Z,88.15
2017-04-19T03:40:54.386Z,88.09
2017-04-19T03:41:54.909Z,88.23
2017-04-19T03:42:55.460Z,87.51
2017-04-19T03:43:55.974Z,87.48
2017-04-19T03:44:56.507Z,87.61
2017-04-19T03:45:57.034Z,87.96
2017-04-19T03:47:58.093Z,87.85
2017-04-19T03:48:58.625Z,88.09
2017-04-19T03:49:59.158Z,88.84
2017-04-19T03:50:59.683Z,89.03
2017-04-19T03:52:00.220Z,89.27
2017-04-19T03:53:01.486Z,88.92
2017-04-19T03:54:01.273Z,88.60
2017-04-19T03:55:01.798Z,87.93
2017-04-19T03:56:02.325Z,87.32
2017-04-19T03:57:02.861Z,86.65
2017-04-19T03:58:03.398Z,86.46
2017-04-19T03:59:04.060Z,86.44
2017-04-19T04:00:04.444Z,86.41
2017-04-19T04:01:04.978Z,86.54
2017-04-19T04:02:05.664Z,87.13
2017-04-19T04:03:06.044Z,87.10
2017-04-19T04:04:06.577Z,87.08
2017-04-19T04:05:07.109Z,87.26
2017-04-19T04:06:07.641Z,87.34
2017-04-19T04:07:08.171Z,87.26
2017-04-19T04:08:08.702Z,87.21
2017-04-19T04:09:09.236Z,86.89
2017-04-19T04:10:09.757Z,86.54
2017-04-19T04:11:10.294Z,86.52
2017-04-19T04:12:10.817Z,86.84
2017-04-19T04:13:11.352Z,86.54
2017-04-19T04:14:11.879Z,86.07
2017-04-19T04:15:12.443Z,86.17
2017-04-19T04:16:12.939Z,85.58
2017-04-19T04:17:13.471Z,85.48
2017-04-19T04:18:14.147Z,85.32
2017-04-19T04:19:14.531Z,85.05
2017-04-19T04:20:15.211Z,85.21
2017-04-19T04:21:15.741Z,84.95
2017-04-19T04:22:16.121Z,84.68
2017-04-19T04:23:16.652Z,84.50
2017-04-19T04:24:17.200Z,84.74
2017-04-19T04:25:17.712Z,84.87
2017-04-19T04:26:18.245Z,84.79
2017-04-19T04:27:18.773Z,84.89
2017-04-19T04:28:19.303Z,84.68
2017-04-19T04:29:19.834Z,84.63
2017-04-19T04:30:20.362Z,84.52
2017-04-19T04:31:20.894Z,84.79
2017-04-19T04:32:21.424Z,84.71
2017-04-19T04:33:21.954Z,84.92
2017-04-19T04:34:22.482Z,84.92
2017-04-19T04:35:23.012Z,84.92
2017-04-19T04:36:23.546Z,85.32
2017-04-19T04:37:24.077Z,84.97
2017-04-19T04:38:24.638Z,85.35
2017-04-19T04:39:25.281Z,85.21
2017-04-19T04:40:25.668Z,85.21
2017-04-19T04:41:26.194Z,85.11
2017-04-19T04:42:26.718Z,84.87
2017-04-19T04:43:27.252Z,85.38
2017-04-19T04:44:27.936Z,85.05
2017-04-19T04:45:28.321Z,85.08
2017-04-19T04:46:28.849Z,84.84
2017-04-19T04:47:29.385Z,85.16
2017-04-19T04:48:30.066Z,84.87
2017-04-19T04:49:30.449Z,84.95
2017-04-19T04:50:31.126Z,84.81
2017-04-19T04:51:31.504Z,84.52
2017-04-19T04:52:32.072Z,84.15
2017-04-19T04:53:32.572Z,84.71
2017-04-19T04:54:33.247Z,84.71
2017-04-19T04:55:33.626Z,84.81
2017-04-19T04:56:34.179Z,84.89
2017-04-19T04:57:34.687Z,84.74
2017-04-19T04:58:35.365Z,84.44
2017-04-19T04:59:35.745Z,84.39
2017-04-19T05:00:36.427Z,84.71
2017-04-19T05:01:36.810Z,84.87
2017-04-19T05:02:37.339Z,84.92
2017-04-19T05:03:37.873Z,85.13
2017-04-19T05:04:38.399Z,85.08
2017-04-19T05:05:38.933Z,85.21
2017-04-19T05:06:39.462Z,85.35
2017-04-19T05:07:39.993Z,85.35
2017-04-19T05:08:40.522Z,85.53
2017-04-19T05:09:41.054Z,85.77
2017-04-19T05:10:41.575Z,85.83
2017-04-19T05:11:42.111Z,85.99
2017-04-19T05:12:42.635Z,86.12
2017-04-19T05:13:43.173Z,85.85
2017-04-19T05:14:43.696Z,86.17
2017-04-19T05:15:44.230Z,86.25
2017-04-19T05:16:44.754Z,86.17
2017-04-19T05:17:45.296Z,86.36
2017-04-19T05:18:45.824Z,86.33
2017-04-19T05:19:46.348Z,86.33
2017-04-19T05:20:46.883Z,86.49
2017-04-19T05:21:47.414Z,86.63
2017-04-19T05:22:47.948Z,86.68
2017-04-19T05:23:48.479Z,86.57
2017-04-19T05:24:49.008Z,86.73
2017-04-19T05:25:49.537Z,86.71
2017-04-19T05:26:50.075Z,86.81
2017-04-19T05:27:50.613Z,87.08
2017-04-19T05:28:51.138Z,87.85
2017-04-19T05:29:51.820Z,87.98
2017-04-19T05:30:52.199Z,87.93
2017-04-19T05:31:52.734Z,87.93
2017-04-19T05:32:53.265Z,87.90
2017-04-19T05:33:53.795Z,87.82
2017-04-19T05:34:54.316Z,88.12
2017-04-19T05:35:54.852Z,87.82
2017-04-19T05:36:55.377Z,87.90
2017-04-19T05:37:55.910Z,87.67
2017-04-19T05:38:56.440Z,87.43
2017-04-19T05:39:56.963Z,87.48
2017-04-19T05:40:57.502Z,87.21
2017-04-19T05:41:58.020Z,86.68
2017-04-19T05:42:58.555Z,86.76
2017-04-19T05:43:59.084Z,86.36
2017-04-19T05:44:59.609Z,85.03
2017-04-19T05:46:00.143Z,84.47
2017-04-19T05:47:00.818Z,84.66
2017-04-19T05:48:01.199Z,84.42
2017-04-19T05:49:01.728Z,83.78
2017-04-19T05:50:02.259Z,82.56
2017-04-19T05:51:02.791Z,81.79
2017-04-19T05:52:03.321Z,80.92
2017-04-19T05:53:03.846Z,81.02
2017-04-19T05:54:04.375Z,80.81
2017-04-19T05:55:04.904Z,80.60
2017-04-19T05:56:05.433Z,80.18
2017-04-19T05:57:05.962Z,79.94
2017-04-19T05:58:06.490Z,79.83
2017-04-19T05:59:07.163Z,79.75
2017-04-19T06:00:07.545Z,79.73
2017-04-19T06:01:08.074Z,78.65
2017-04-19T06:02:08.604Z,79.83
2017-04-19T06:03:09.135Z,79.65
2017-04-19T06:04:09.659Z,79.23
2017-04-19T06:05:10.191Z,79.05
2017-04-19T06:06:10.723Z,78.70
2017-04-19T06:07:11.404Z,77.33
2017-04-19T06:08:11.934Z,77.83
2017-04-19T06:09:12.470Z,77.31
2017-04-19T06:10:12.859Z,76.57
2017-04-19T06:11:13.386Z,75.52
2017-04-19T06:12:13.915Z,76.94
2017-04-19T06:13:14.458Z,76.52
2017-04-19T06:14:14.970Z,76.78
2017-04-19T06:15:15.498Z,76.94
2017-04-19T06:16:16.032Z,77.65
2017-04-19T06:17:16.711Z,77.94
2017-04-19T06:18:17.089Z,77.04
2017-04-19T06:19:17.771Z,76.18
2017-04-19T06:20:18.299Z,77.20
2017-04-19T06:21:18.685Z,76.52
2017-04-19T06:22:19.209Z,76.60
2017-04-19T06:23:19.741Z,76.04
2017-04-19T06:24:20.271Z,76.18
2017-04-19T06:25:20.800Z,76.18
2017-04-19T06:26:21.332Z,76.12
2017-04-19T06:27:21.866Z,76.10
2017-04-19T06:28:22.391Z,76.26
2017-04-19T06:29:23.072Z,76.20
2017-04-19T06:30:23.447Z,75.78
2017-04-19T06:31:23.975Z,75.39
2017-04-19T06:32:24.512Z,75.65
2017-04-19T06:33:25.033Z,74.32
2017-04-19T06:34:25.563Z,75.39
2017-04-19T06:35:26.094Z,75.39
2017-04-19T06:36:26.626Z,74.92
2017-04-19T06:37:27.157Z,74.55
2017-04-19T06:38:27.685Z,75.02
2017-04-19T06:39:28.224Z,75.44
2017-04-19T06:40:28.751Z,74.71
2017-04-19T06:41:29.273Z,75.68
2017-04-19T06:42:29.801Z,74.11
2017-04-19T06:43:30.331Z,73.97
2017-04-19T06:44:30.860Z,73.74
2017-04-19T06:45:31.389Z,73.87
2017-04-19T06:46:31.926Z,71.94
2017-04-19T06:47:32.593Z,73.55
2017-04-19T06:48:33.121Z,74.81
2017-04-19T06:49:33.657Z,72.51
2017-04-19T06:50:34.188Z,74.42
2017-04-19T06:51:34.578Z,71.96
2017-04-19T06:52:35.108Z,72.46
2017-04-19T06:53:35.644Z,73.11
2017-04-19T06:54:36.179Z,73.95
2017-04-19T06:55:36.697Z,72.98
2017-04-19T06:56:37.227Z,70.84
2017-04-19T06:57:37.754Z,70.64
2017-04-19T06:58:38.287Z,72.30
2017-04-19T06:59:38.963Z,69.80
2017-04-19T07:00:39.346Z,69.88
2017-04-19T07:01:39.875Z,71.00
2017-04-19T07:02:40.406Z,69.88
2017-04-19T07:03:40.932Z,70.40
2017-04-19T07:04:41.464Z,70.06
2017-04-19T07:05:41.991Z,69.70
2017-04-19T07:06:42.523Z,69.70
2017-04-19T07:07:43.049Z,70.09
2017-04-19T07:08:43.728Z,70.24
2017-04-19T07:09:44.258Z,68.06
2017-04-19T07:10:44.642Z,68.45
2017-04-19T07:11:45.319Z,68.32
2017-04-19T07:12:45.704Z,68.58
2017-04-19T07:13:46.230Z,68.97
2017-04-19T07:14:46.906Z,70.76
2017-04-19T07:15:47.327Z,67.52
2017-04-19T07:16:47.820Z,66.74
2017-04-19T07:17:48.502Z,66.74
2017-04-19T07:18:48.880Z,66.87
2017-04-19T07:19:49.415Z,67.02
2017-04-19T07:20:50.090Z,66.77
2017-04-19T07:21:50.465Z,66.30
2017-04-19T07:22:51.005Z,66.01
2017-04-19T07:23:51.531Z,67.05
2017-04-19T07:24:52.207Z,66.48
2017-04-19T07:25:52.592Z,65.14
2017-04-19T07:26:53.124Z,65.37
2017-04-19T07:27:53.805Z,65.01
2017-04-19T07:28:54.330Z,64.98
2017-04-19T07:29:54.866Z,64.54
2017-04-19T07:30:55.395Z,66.30
2017-04-19T07:31:55.798Z,66.22
2017-04-19T07:32:56.460Z,63.49
2017-04-19T07:33:56.994Z,65.47
2017-04-19T07:34:57.524Z,63.95
2017-04-19T07:35:57.924Z,63.92
2017-04-19T07:36:58.436Z,63.66
2017-04-19T07:37:58.965Z,64.26
2017-04-19T07:38:59.496Z,65.24
2017-04-19T07:40:00.025Z,65.37
2017-04-19T07:41:00.702Z,63.82
2017-04-19T07:42:01.086Z,63.74
2017-04-19T07:43:01.616Z,63.92
2017-04-19T07:44:02.147Z,63.66
2017-04-19T07:45:02.820Z,63.13
2017-04-19T07:46:03.202Z,61.78
2017-04-19T07:47:03.734Z,63.07
2017-04-19T07:48:04.258Z,62.53
2017-04-19T07:49:04.823Z,61.74
2017-04-19T07:50:05.319Z,61.76
2017-04-19T07:51:05.854Z,61.25
2017-04-19T07:52:06.398Z,61.99
2017-04-19T07:53:06.913Z,60.94
2017-04-19T07:54:07.443Z,61.09
2017-04-19T07:55:07.973Z,64.44
2017-04-19T07:56:08.506Z,63.15
2017-04-19T07:57:09.033Z,62.56
2017-04-19T07:58:09.571Z,63.46
2017-04-19T07:59:10.086Z,64.34
2017-04-19T08:00:10.651Z,65.96
2017-04-19T08:01:11.298Z,62.69
2017-04-19T08:02:11.680Z,63.13
2017-04-19T08:03:12.209Z,63.28
2017-04-19T08:04:12.738Z,62.27
2017-04-19T08:05:13.271Z,62.48
2017-04-19T08:06:13.801Z,63.87
2017-04-19T08:07:14.328Z,66.35
2017-04-19T08:08:14.857Z,63.43
2017-04-19T08:09:15.389Z,63.72
2017-04-19T08:10:15.914Z,62.82
2017-04-19T08:11:16.449Z,63.90
2017-04-19T08:12:16.981Z,61.61
2017-04-19T08:13:17.660Z,61.09
2017-04-19T08:14:18.196Z,60.17
2017-04-19T08:15:18.604Z,60.50
2017-04-19T08:16:19.273Z,62.30
2017-04-19T08:17:19.654Z,60.45
2017-04-19T08:18:20.187Z,61.94
2017-04-19T08:19:20.715Z,62.94
2017-04-19T08:20:21.240Z,63.54
2017-04-19T08:21:21.772Z,62.58
2017-04-19T08:22:22.308Z,61.56
2017-04-19T08:23:22.830Z,61.48
2017-04-19T08:24:23.359Z,61.91
2017-04-19T08:25:23.888Z,62.66
2017-04-19T08:26:25.462Z,59.48
2017-04-19T08:27:24.946Z,60.35
2017-04-19T08:28:25.465Z,58.33
2017-04-19T08:29:26.002Z,58.35
2017-04-19T08:30:26.520Z,60.05
2017-04-19T08:31:27.052Z,60.84
2017-04-19T08:32:27.585Z,60.45
2017-04-19T08:33:28.260Z,60.76
2017-04-19T08:34:28.642Z,59.81
2017-04-19T08:35:29.177Z,61.09
2017-04-19T08:36:29.710Z,56.72
2017-04-19T08:37:30.235Z,52.45
2017-04-19T08:38:30.763Z,53.82
2017-04-19T08:39:31.298Z,50.50
2017-04-19T08:40:31.978Z,50.43
2017-04-19T08:41:32.355Z,49.52
2017-04-19T08:42:32.884Z,50.91
2017-04-19T08:43:33.563Z,52.02
2017-04-19T08:44:34.090Z,52.25
2017-04-19T08:45:34.472Z,50.91
2017-04-19T08:46:35.003Z,53.18
2017-04-19T08:47:35.555Z,52.75
2017-04-19T08:48:36.067Z,52.65
2017-04-19T08:49:36.590Z,50.25
2017-04-19T08:50:37.115Z,51.59
2017-04-19T08:51:37.650Z,48.23
2017-04-19T08:52:38.176Z,48.31
2017-04-19T08:53:38.708Z,47.83
2017-04-19T08:54:39.239Z,48.86
2017-04-19T08:55:39.777Z,47.78
2017-04-19T08:56:40.330Z,46.68
2017-04-19T08:57:40.844Z,46.15
2017-04-19T08:58:41.524Z,47.63
2017-04-19T08:59:41.909Z,47.31
2017-04-19T09:00:42.431Z,45.30
2017-04-19T09:01:42.973Z,44.97
2017-04-19T09:02:43.503Z,48.21
2017-04-19T09:03:44.030Z,45.80
2017-04-19T09:04:44.562Z,47.36
2017-04-19T09:05:45.092Z,45.35
2017-04-19T09:06:45.618Z,48.74
2017-04-19T09:07:46.151Z,51.21
2017-04-19T09:08:46.681Z,42.92
2017-04-19T09:09:47.213Z,47.71
2017-04-19T09:10:47.746Z,45.43
2017-04-19T09:11:48.270Z,46.98
2017-04-19T09:12:48.799Z,46.78
2017-04-19T09:13:49.333Z,45.40
2017-04-19T09:14:49.857Z,46.88
2017-04-19T09:15:50.388Z,46.10
2017-04-19T09:16:50.916Z,47.76
2017-04-19T09:17:51.447Z,48.56
2017-04-19T09:18:51.974Z,46.43
2017-04-19T09:19:52.507Z,45.30
2017-04-19T09:20:53.066Z,43.92
2017-04-19T09:21:53.562Z,43.20
2017-04-19T09:22:54.089Z,43.15
2017-04-19T09:23:54.616Z,42.97
2017-04-19T09:24:55.146Z,49.24
2017-04-19T09:25:55.674Z,45.82
2017-04-19T09:26:56.354Z,43.08
2017-04-19T09:27:56.734Z,43.10
2017-04-19T09:28:57.260Z,45.80
2017-04-19T09:29:57.792Z,45.50
2017-04-19T09:30:58.315Z,46.07
2017-04-19T09:31:58.856Z,44.17
2017-04-19T09:32:59.374Z,42.25
2017-04-19T09:33:59.909Z,44.68
2017-04-19T09:35:00.436Z,45.93
2017-04-19T09:36:00.965Z,44.62
2017-04-19T09:37:01.645Z,43.08
2017-04-19T09:38:02.030Z,41.88
2017-04-19T09:39:02.564Z,44.35
2017-04-19T09:40:03.095Z,44.39
2017-04-19T09:41:03.632Z,47.86
2017-04-19T09:42:04.160Z,43.20
2017-04-19T09:43:04.683Z,43.52
2017-04-19T09:44:05.216Z,44.60
2017-04-19T09:45:05.744Z,44.85
2017-04-19T09:46:06.278Z,46.10
2017-04-19T09:47:06.814Z,45.52
2017-04-19T09:48:07.336Z,46.27
2017-04-19T09:49:07.874Z,43.22
2017-04-19T09:50:08.401Z,46.00
2017-04-19T09:51:09.082Z,43.85
2017-04-19T09:52:09.460Z,42.65
2017-04-19T09:53:09.987Z,44.27
2017-04-19T09:54:10.517Z,46.58
2017-04-19T09:55:11.044Z,45.35
2017-04-19T09:56:11.579Z,43.40
2017-04-19T09:57:12.100Z,41.78
2017-04-19T09:58:12.633Z,42.67
2017-04-19T09:59:13.166Z,44.62
2017-04-19T10:00:13.695Z,41.40
2017-04-19T10:01:14.223Z,44.30
2017-04-19T10:02:14.752Z,45.10
2017-04-19T10:03:15.295Z,43.27
2017-04-19T10:04:15.808Z,44.72
2017-04-19T10:05:16.344Z,43.80
2017-04-19T10:06:16.869Z,47.26
2017-04-19T10:07:17.545Z,43.42
2017-04-19T10:08:18.077Z,42.45
2017-04-19T10:09:18.473Z,41.61
2017-04-19T10:10:18.988Z,46.10
2017-04-19T10:11:19.517Z,43.95
2017-04-19T10:12:20.049Z,46.05
2017-04-19T10:13:20.583Z,45.00
2017-04-19T10:14:21.110Z,44.39
2017-04-19T10:15:21.785Z,42.33
2017-04-19T10:16:22.170Z,43.27
2017-04-19T10:17:22.703Z,44.05
2017-04-19T10:18:23.242Z,48.11
2017-04-19T10:19:23.758Z,50.27
2017-04-19T10:20:24.292Z,45.52
2017-04-19T10:21:24.823Z,46.10
2017-04-19T10:22:25.504Z,46.83
2017-04-19T10:23:26.036Z,45.43
2017-04-19T10:24:26.428Z,47.08
2017-04-19T10:25:26.951Z,47.10
2017-04-19T10:26:27.474Z,46.60
2017-04-19T10:27:28.035Z,47.36
2017-04-19T10:28:28.678Z,47.00
2017-04-19T10:29:29.214Z,46.88
2017-04-19T10:30:29.592Z,48.97
2017-04-19T10:31:30.140Z,47.08
2017-04-19T10:32:30.796Z,49.69
2017-04-19T10:33:31.173Z,46.50
2017-04-19T10:34:31.733Z,47.68
2017-04-19T10:35:32.233Z,48.14
2017-04-19T10:36:32.767Z,49.97
2017-04-19T10:37:33.302Z,48.81
2017-04-19T10:38:33.828Z,47.81
2017-04-19T10:39:34.362Z,49.57
2017-04-19T10:40:34.888Z,50.83
2017-04-19T10:41:35.422Z,51.59
2017-04-19T10:42:36.088Z,51.44
2017-04-19T10:43:36.469Z,50.10
2017-04-19T10:44:37.004Z,50.55
2017-04-19T10:45:37.542Z,50.58
2017-04-19T10:46:38.076Z,51.99
2017-04-19T10:47:38.588Z,52.48
2017-04-19T10:48:39.266Z,52.25
2017-04-19T10:49:39.652Z,53.54
2017-04-19T10:50:40.182Z,51.84
2017-04-19T10:51:40.710Z,53.34
2017-04-19T10:52:41.239Z,52.96
2017-04-19T10:53:41.766Z,53.51
2017-04-19T10:54:42.302Z,53.95
2017-04-19T10:55:42.829Z,54.08
2017-04-19T10:56:43.366Z,54.91
2017-04-19T10:57:44.042Z,55.83
2017-04-19T10:58:44.431Z,55.19
2017-04-19T10:59:44.963Z,56.26
2017-04-19T11:00:45.491Z,54.68
2017-04-19T11:01:46.022Z,55.60
2017-04-19T11:02:46.556Z,54.78
2017-04-19T11:03:47.088Z,54.33
2017-04-19T11:04:47.620Z,53.87
2017-04-19T11:05:48.301Z,53.75
2017-04-19T11:06:48.683Z,54.28
2017-04-19T11:07:49.209Z,55.75
2017-04-19T11:08:49.742Z,54.00
2017-04-19T11:09:50.422Z,55.67
2017-04-19T11:10:50.801Z,53.82
2017-04-19T11:11:51.328Z,53.47
2017-04-19T11:12:51.855Z,54.10
2017-04-19T11:13:52.393Z,54.08
2017-04-19T11:14:53.062Z,51.69
2017-04-19T11:15:53.449Z,52.57
2017-04-19T11:16:53.973Z,51.08
2017-04-19T11:17:54.502Z,51.41
2017-04-19T11:18:55.049Z,51.21
2017-04-19T11:19:55.565Z,58.33
2017-04-19T11:20:56.102Z,47.51
2017-04-19T11:22:57.162Z,45.60
2017-04-19T11:23:57.689Z,47.86
2017-04-19T11:24:58.228Z,49.44
2017-04-19T11:25:58.748Z,50.10
2017-04-19T11:26:59.278Z,47.08
2017-04-19T11:27:59.806Z,57.18
2017-04-19T11:29:00.339Z,49.57
2017-04-19T11:30:01.019Z,46.55
2017-04-19T11:31:01.406Z,47.00
2017-04-19T11:32:01.933Z,46.38
2017-04-19T11:33:02.465Z,46.12
2017-04-19T11:34:02.985Z,49.37
2017-04-19T11:35:03.515Z,46.32
2017-04-19T11:36:04.044Z,44.75
2017-04-19T11:37:04.576Z,45.93
2017-04-19T11:38:05.104Z,47.68
2017-04-19T11:39:05.633Z,47.48
2017-04-19T11:40:06.166Z,47.23
2017-04-19T11:41:06.698Z,48.06
2017-04-19T11:42:07.233Z,49.39
2017-04-19T11:43:07.758Z,46.81
2017-04-19T11:44:08.288Z,48.39
2017-04-19T11:45:08.828Z,47.31
2017-04-19T11:46:09.365Z,46.85
2017-04-19T11:47:09.894Z,48.11
2017-04-19T11:48:10.427Z,50.27
2017-04-19T11:49:10.959Z,48.01
2017-04-19T11:50:11.488Z,50.96
2017-04-19T11:51:12.023Z,47.13
2017-04-19T11:52:12.697Z,49.34
2017-04-19T11:53:13.079Z,49.19
2017-04-19T11:54:13.609Z,45.27
2017-04-19T11:55:14.141Z,47.73
2017-04-19T11:56:14.669Z,44.80
2017-04-19T11:57:15.202Z,57.08
2017-04-19T11:58:15.726Z,55.11
2017-04-19T11:59:16.256Z,45.12
2017-04-19T12:00:16.793Z,47.15
2017-04-19T12:01:17.309Z,40.54
2017-04-19T12:02:17.848Z,43.25
2017-04-19T12:03:18.518Z,41.50
2017-04-19T12:04:18.904Z,42.75
2017-04-19T12:05:19.442Z,44.32
2017-04-19T12:06:19.961Z,47.51
2017-04-19T12:07:20.497Z,49.29
2017-04-19T12:08:21.025Z,50.63
2017-04-19T12:09:21.555Z,48.06
2017-04-19T12:10:22.082Z,48.61
2017-04-19T12:11:22.617Z,52.10
2017-04-19T12:12:23.141Z,52.81
2017-04-19T12:13:23.819Z,52.70
2017-04-19T12:14:24.202Z,53.06
2017-04-19T12:15:24.740Z,54.23
2017-04-19T12:16:25.263Z,54.23
2017-04-19T12:17:25.796Z,53.09
2017-04-19T12:18:26.327Z,57.33
2017-04-19T12:19:26.854Z,52.07
2017-04-19T12:20:27.386Z,53.82
2017-04-19T12:21:27.916Z,48.26
2017-04-19T12:22:28.446Z,51.19
2017-04-19T12:23:28.975Z,50.22
2017-04-19T12:24:29.655Z,45.87
2017-04-19T12:25:30.053Z,48.51
2017-04-19T12:26:30.569Z,48.26
2017-04-19T12:27:31.104Z,51.49
2017-04-19T12:28:31.634Z,46.50
2017-04-19T12:29:32.320Z,44.15
2017-04-19T12:30:32.720Z,44.77
2017-04-19T12:31:33.239Z,42.90
2017-04-19T12:32:33.764Z,37.02
2017-04-19T12:33:34.297Z,38.82
2017-04-19T12:34:34.826Z,42.00
2017-04-19T12:35:35.363Z,41.28
2017-04-19T12:36:35.889Z,42.95
2017-04-19T12:37:36.420Z,42.70
2017-04-19T12:38:36.948Z,45.62
2017-04-19T12:39:37.480Z,46.68
2017-04-19T12:40:38.002Z,47.61
2017-04-19T12:41:38.681Z,46.60
2017-04-19T12:42:39.066Z,45.80
2017-04-19T12:43:39.595Z,46.70
2017-04-19T12:44:40.120Z,46.50
2017-04-19T12:45:40.647Z,46.27
2017-04-19T12:46:41.184Z,47.63
2017-04-19T12:47:41.719Z,46.02
2017-04-19T12:48:42.234Z,46.38
2017-04-19T12:49:42.765Z,47.76
2017-04-19T12:50:43.296Z,48.01
2017-04-19T12:51:43.828Z,46.63
2017-04-19T12:52:44.355Z,45.25
2017-04-19T12:53:44.887Z,46.58
2017-04-19T12:54:45.574Z,47.51
2017-04-19T12:55:45.945Z,46.81
2017-04-19T12:56:46.474Z,46.60
2017-04-19T12:57:47.002Z,46.52
2017-04-19T12:58:47.532Z,45.48
2017-04-19T12:59:48.203Z,44.39
2017-04-19T13:00:48.596Z,44.25
2017-04-19T13:01:49.115Z,47.68